createdAt,value
2023-11-17T00:02:23.505Z,4.30
2023-11-17T00:04:50.081Z,5.18
2023-11-17T00:07:17.358Z,4.53
2023-11-17T00:09:43.959Z,4.43
2023-11-17T00:12:10.442Z,4.90
2023-11-17T00:14:37.533Z,4.57
2023-11-17T00:17:04.340Z,4.72
2023-11-17T00:19:30.933Z,4.30
2023-11-17T00:21:58.255Z,4.38
2023-11-17T00:24:24.762Z,4.20
2023-11-17T00:26:51.250Z,4.65
2023-11-17T00:29:17.767Z,4.22
2023-11-17T00:31:44.416Z,4.15
2023-11-17T00:34:10.905Z,4.60
2023-11-17T00:36:37.321Z,4.20
2023-11-17T00:39:03.859Z,4.18
2023-11-17T00:41:30.971Z,4.20
2023-11-17T00:43:57.549Z,4.22
2023-11-17T00:46:24.152Z,3.70
2023-11-17T00:48:50.745Z,3.67
2023-11-17T00:51:19.947Z,4.30
2023-11-17T00:53:46.515Z,3.90
2023-11-17T00:56:13.039Z,4.05
2023-11-17T00:58:39.559Z,3.83
2023-11-17T01:01:08.202Z,4.28
2023-11-17T01:03:35.084Z,3.83
2023-11-17T01:06:01.620Z,4.40
2023-11-17T01:08:29.779Z,4.25
2023-11-17T01:10:56.275Z,3.95
2023-11-17T01:13:23.180Z,4.07
2023-11-17T01:15:49.755Z,4.00
2023-11-17T01:18:16.366Z,4.55
2023-11-17T01:20:42.994Z,4.68
2023-11-17T01:23:09.635Z,3.95
2023-11-17T01:25:36.230Z,3.92
2023-11-17T01:28:04.919Z,4.38
2023-11-17T01:30:32.635Z,3.70
2023-11-17T01:32:59.599Z,3.92
2023-11-17T01:35:26.387Z,4.25
2023-11-17T01:37:52.846Z,3.95
2023-11-17T01:40:21.052Z,3.83
2023-11-17T01:42:47.536Z,3.72
2023-11-17T01:45:15.542Z,3.75
2023-11-17T01:47:43.280Z,3.58
2023-11-17T01:50:13.140Z,4.13
2023-11-17T01:52:41.604Z,3.53
2023-11-17T01:55:13.149Z,3.65
2023-11-17T01:57:40.661Z,3.92
2023-11-17T02:00:15.038Z,4.32
2023-11-17T02:02:50.223Z,3.72
2023-11-17T02:05:21.174Z,3.92
2023-11-17T02:07:59.775Z,3.80
2023-11-17T02:10:57.958Z,4.35
2023-11-17T02:13:32.600Z,3.72
2023-11-17T02:16:03.731Z,4.18
2023-11-17T02:18:36.257Z,4.00
2023-11-17T02:21:06.781Z,4.25
2023-11-17T02:23:34.613Z,4.38
2023-11-17T02:26:03.969Z,4.45
2023-11-17T02:28:43.020Z,4.40
2023-11-17T02:31:16.352Z,4.65
2023-11-17T02:33:50.309Z,4.30
2023-11-17T02:36:20.431Z,3.83
2023-11-17T02:38:51.738Z,4.45
2023-11-17T02:41:30.410Z,4.25
2023-11-17T02:44:05.880Z,4.22
2023-11-17T02:46:35.565Z,4.05
2023-11-17T02:49:11.943Z,4.45
2023-11-17T02:51:44.409Z,5.15
2023-11-17T02:54:14.376Z,4.10
2023-11-17T02:56:41.618Z,4.03
2023-11-17T02:59:12.551Z,4.32
2023-11-17T03:01:40.151Z,4.43
2023-11-17T03:06:46.860Z,3.45
2023-11-17T03:09:15.981Z,4.63
2023-11-17T03:11:43.663Z,4.20
2023-11-17T03:16:37.684Z,4.35
2023-11-17T03:19:11.284Z,4.22
2023-11-17T03:21:45.631Z,4.13
2023-11-17T03:24:24.330Z,3.58
2023-11-17T03:26:53.486Z,3.85
2023-11-17T03:29:20.888Z,4.40
2023-11-17T03:31:54.259Z,4.63
2023-11-17T03:36:58.172Z,4.18
2023-11-17T03:39:26.097Z,4.30
2023-11-17T03:44:22.628Z,4.38
2023-11-17T03:46:49.814Z,4.30
2023-11-17T03:49:16.824Z,4.07
2023-11-17T03:51:44.239Z,3.88
2023-11-17T03:54:10.717Z,3.65
2023-11-17T03:56:38.278Z,4.13
2023-11-17T03:59:05.307Z,4.32
2023-11-17T04:01:32.588Z,4.03
2023-11-17T04:03:59.403Z,3.75
2023-11-17T04:06:25.908Z,3.88
2023-11-17T04:08:53.588Z,3.50
2023-11-17T04:11:20.041Z,3.70
2023-11-17T04:13:46.429Z,4.10
2023-11-17T04:16:13.021Z,4.57
2023-11-17T04:18:42.581Z,3.70
2023-11-17T04:21:11.448Z,4.05
2023-11-17T04:23:38.270Z,4.20
2023-11-17T04:26:04.865Z,4.10
2023-11-17T04:28:31.400Z,3.95
2023-11-17T04:30:57.986Z,3.75
2023-11-17T04:33:24.892Z,4.40
2023-11-17T04:35:52.351Z,3.65
2023-11-17T04:38:19.042Z,3.90
2023-11-17T04:40:45.512Z,3.90
2023-11-17T04:43:12.211Z,3.55
2023-11-17T04:45:43.896Z,3.70
2023-11-17T04:48:13.475Z,3.55
2023-11-17T04:50:40.967Z,3.58
2023-11-17T04:53:08.439Z,3.70
2023-11-17T04:55:35.304Z,4.00
2023-11-17T04:58:01.955Z,3.83
2023-11-17T05:00:28.618Z,3.83
2023-11-17T05:02:55.390Z,4.00
2023-11-17T05:05:22.976Z,3.70
2023-11-17T05:10:20.232Z,3.50
2023-11-17T05:12:47.660Z,4.07
2023-11-17T05:15:14.786Z,3.70
2023-11-17T05:17:45.097Z,4.13
2023-11-17T05:20:16.430Z,4.22
2023-11-17T05:22:48.642Z,3.70
2023-11-17T05:25:16.471Z,3.88
2023-11-17T05:27:44.945Z,4.07
2023-11-17T05:30:11.681Z,3.80
2023-11-17T05:32:38.371Z,4.43
2023-11-17T05:35:08.556Z,4.03
2023-11-17T05:37:35.769Z,4.22
2023-11-17T05:40:02.452Z,3.92
2023-11-17T05:42:31.713Z,4.03
2023-11-17T05:44:58.143Z,3.80
2023-11-17T05:47:24.607Z,4.00
2023-11-17T05:49:51.041Z,4.20
2023-11-17T05:52:17.822Z,4.47
2023-11-17T05:54:46.362Z,4.22
2023-11-17T05:57:13.996Z,4.45
2023-11-17T06:02:07.364Z,3.42
2023-11-17T06:04:34.124Z,3.80
2023-11-17T06:07:01.591Z,3.38
2023-11-17T06:09:29.258Z,4.00
2023-11-17T06:14:28.807Z,4.00
2023-11-17T06:16:55.423Z,4.03
2023-11-17T06:19:23.431Z,4.03
2023-11-17T06:21:49.850Z,4.50
2023-11-17T06:24:16.496Z,5.40
2023-11-17T06:26:46.350Z,4.50
2023-11-17T06:29:13.928Z,4.50
2023-11-17T06:34:13.660Z,4.72
2023-11-17T06:36:43.831Z,3.83
2023-11-17T06:39:17.179Z,4.47
2023-11-17T06:41:45.158Z,4.72
2023-11-17T06:44:11.552Z,4.72
2023-11-17T06:46:40.763Z,4.45
2023-11-17T06:49:10.115Z,4.82
2023-11-17T06:51:39.052Z,4.15
2023-11-17T06:54:09.820Z,4.15
2023-11-17T06:56:36.202Z,4.60
2023-11-17T06:59:02.583Z,4.43
2023-11-17T07:01:29.676Z,4.28
2023-11-17T07:03:56.474Z,4.68
2023-11-17T07:06:28.064Z,4.13
2023-11-17T07:08:54.478Z,4.65
2023-11-17T07:11:20.997Z,4.38
2023-11-17T07:13:48.131Z,4.40
2023-11-17T07:16:16.667Z,4.35
2023-11-17T07:18:44.019Z,3.80
2023-11-17T07:21:10.456Z,4.30
2023-11-17T07:23:36.942Z,4.32
2023-11-17T07:26:04.314Z,4.80
2023-11-17T07:28:32.093Z,4.10
2023-11-17T07:31:00.485Z,4.90
2023-11-17T07:33:26.965Z,3.95
2023-11-17T07:35:53.822Z,4.25
2023-11-17T07:38:20.411Z,4.93
2023-11-17T07:40:46.814Z,4.32
2023-11-17T07:43:13.280Z,4.65
2023-11-17T07:45:40.634Z,4.72
2023-11-17T07:48:08.362Z,5.03
2023-11-17T07:50:36.954Z,4.65
2023-11-17T07:53:03.647Z,4.90
2023-11-17T07:55:30.213Z,4.55
2023-11-17T07:57:57.432Z,4.53
2023-11-17T08:00:28.875Z,4.60
2023-11-17T08:02:55.766Z,4.80
2023-11-17T08:05:22.318Z,4.82
2023-11-17T08:07:48.979Z,5.38
2023-11-17T08:10:16.012Z,4.70
2023-11-17T08:12:42.730Z,5.13
2023-11-17T08:15:10.004Z,5.88
2023-11-17T08:17:38.897Z,5.28
2023-11-17T08:20:15.239Z,5.28
2023-11-17T08:22:43.138Z,5.25
2023-11-17T08:25:09.785Z,5.45
2023-11-17T08:27:36.566Z,5.78
2023-11-17T08:30:08.233Z,5.43
2023-11-17T08:32:38.032Z,6.25
2023-11-17T08:35:05.566Z,5.65
2023-11-17T08:37:33.809Z,6.30
2023-11-17T08:40:01.635Z,5.43
2023-11-17T08:42:28.035Z,5.70
2023-11-17T08:44:54.617Z,5.57
2023-11-17T08:47:21.066Z,6.68
2023-11-17T08:49:47.490Z,6.22
2023-11-17T08:52:14.513Z,5.93
2023-11-17T08:54:41.105Z,6.47
2023-11-17T08:57:09.627Z,6.20
2023-11-17T08:59:38.827Z,6.15
2023-11-17T09:02:06.501Z,5.95
2023-11-17T09:04:32.965Z,6.00
2023-11-17T09:06:59.608Z,6.07
2023-11-17T09:09:30.625Z,5.88
2023-11-17T09:12:00.158Z,6.22
2023-11-17T09:14:31.980Z,6.03
2023-11-17T09:17:01.703Z,5.88
2023-11-17T09:19:29.251Z,6.30
2023-11-17T09:21:55.878Z,6.55
2023-11-17T09:24:22.278Z,5.72
2023-11-17T09:26:48.654Z,5.93
2023-11-17T09:29:15.104Z,6.55
2023-11-17T09:31:42.866Z,6.45
2023-11-17T09:34:10.024Z,7.40
2023-11-17T09:36:41.793Z,7.32
2023-11-17T09:39:11.374Z,6.40
2023-11-17T09:41:40.535Z,6.40
2023-11-17T09:44:11.209Z,7.20
2023-11-17T09:47:05.453Z,6.55
2023-11-17T09:49:33.820Z,7.20
2023-11-17T09:52:00.411Z,6.00
2023-11-17T09:54:31.620Z,7.55
2023-11-17T09:56:59.037Z,6.82
2023-11-17T09:59:26.837Z,6.90
2023-11-17T10:01:54.803Z,6.70
2023-11-17T10:04:22.693Z,6.13
2023-11-17T10:06:51.886Z,6.35
2023-11-17T10:09:20.055Z,7.03
2023-11-17T10:11:49.073Z,6.43
2023-11-17T10:14:16.623Z,5.90
2023-11-17T10:19:19.134Z,6.00
2023-11-17T10:21:48.208Z,5.03
2023-11-17T10:24:17.873Z,5.85
2023-11-17T10:26:44.459Z,5.70
2023-11-17T10:29:10.994Z,5.68
2023-11-17T10:31:44.064Z,6.13
2023-11-17T10:34:14.783Z,5.60
2023-11-17T10:37:05.570Z,5.32
2023-11-17T10:39:57.376Z,5.13
2023-11-17T10:42:33.309Z,5.30
2023-11-17T10:45:17.164Z,4.78
2023-11-17T10:47:44.402Z,5.35
2023-11-17T10:50:11.702Z,5.53
2023-11-17T10:52:38.296Z,5.05
2023-11-17T10:55:05.093Z,4.90
2023-11-17T10:57:32.311Z,5.03
2023-11-17T10:59:59.043Z,4.88
2023-11-17T11:02:29.901Z,4.63
2023-11-17T11:05:03.788Z,4.18
2023-11-17T11:07:39.816Z,4.47
2023-11-17T11:10:16.283Z,4.70
2023-11-17T11:12:42.924Z,4.57
2023-11-17T11:15:18.189Z,4.25
2023-11-17T11:17:59.400Z,4.53
2023-11-17T11:20:27.114Z,4.20
2023-11-17T11:22:55.204Z,4.35
2023-11-17T11:25:22.472Z,3.75
2023-11-17T11:27:49.344Z,3.70
2023-11-17T11:30:18.894Z,4.15
2023-11-17T11:32:48.166Z,4.00
2023-11-17T11:35:16.074Z,3.78
2023-11-17T11:37:42.738Z,4.35
2023-11-17T11:40:13.182Z,4.38
2023-11-17T11:42:46.100Z,4.28
2023-11-17T11:45:17.764Z,4.03
2023-11-17T11:47:50.364Z,3.90
2023-11-17T11:50:23.342Z,4.28
2023-11-17T11:53:14.988Z,3.75
2023-11-17T11:55:42.624Z,4.15
2023-11-17T11:58:09.098Z,3.65
2023-11-17T12:00:36.412Z,4.15
2023-11-17T12:03:08.276Z,4.20
2023-11-17T12:05:44.762Z,4.05
2023-11-17T12:08:28.582Z,3.97
2023-11-17T12:11:07.647Z,4.32
2023-11-17T12:13:50.205Z,4.30
2023-11-17T12:16:20.750Z,5.15
2023-11-17T12:18:51.408Z,4.57
2023-11-17T12:21:20.432Z,4.38
2023-11-17T12:23:55.374Z,4.57
2023-11-17T12:26:25.422Z,5.40
2023-11-17T12:28:53.365Z,5.35
2023-11-17T12:31:20.591Z,4.90
2023-11-17T12:33:50.812Z,4.53
2023-11-17T12:36:18.982Z,5.25
2023-11-17T12:38:50.353Z,5.03
2023-11-17T12:41:17.574Z,4.97
2023-11-17T12:43:49.097Z,4.82
2023-11-17T12:46:16.135Z,5.05
2023-11-17T12:48:44.234Z,4.55
2023-11-17T12:51:12.944Z,5.15
2023-11-17T12:53:51.117Z,4.15
2023-11-17T12:56:18.991Z,4.63
2023-11-17T12:58:45.554Z,5.03
2023-11-17T13:01:17.518Z,4.90
2023-11-17T13:03:45.892Z,4.43
2023-11-17T13:06:12.572Z,4.05
2023-11-17T13:08:39.589Z,4.78
2023-11-17T13:11:11.415Z,4.40
2023-11-17T13:13:42.398Z,4.20
2023-11-17T13:16:11.401Z,4.40
2023-11-17T13:18:40.560Z,4.28
2023-11-17T13:21:16.422Z,3.85
2023-11-17T13:23:43.272Z,4.03
2023-11-17T13:26:15.851Z,4.82
2023-11-17T13:28:43.857Z,3.58
2023-11-17T13:31:14.150Z,4.93
2023-11-17T13:33:42.567Z,4.15
2023-11-17T13:36:12.927Z,4.18
2023-11-17T13:39:14.620Z,3.80
2023-11-17T13:41:53.610Z,3.45
2023-11-17T13:44:29.142Z,3.97
2023-11-17T13:47:03.603Z,3.85
2023-11-17T13:49:31.073Z,4.65
2023-11-17T13:52:00.268Z,4.15
2023-11-17T13:54:29.426Z,3.47
2023-11-17T13:56:56.482Z,3.65
2023-11-17T13:59:33.377Z,4.22
2023-11-17T14:02:05.294Z,4.00
2023-11-17T14:04:36.632Z,4.18
2023-11-17T14:07:04.402Z,4.40
2023-11-17T14:09:32.875Z,3.50
2023-11-17T14:12:04.585Z,3.42
2023-11-17T14:14:32.237Z,3.40
2023-11-17T14:19:29.531Z,3.33
2023-11-17T14:21:56.139Z,3.53
2023-11-17T14:24:22.662Z,2.95
2023-11-17T14:26:52.086Z,3.42
2023-11-17T14:29:19.282Z,3.63
2023-11-17T14:31:46.195Z,3.63
2023-11-17T14:34:22.062Z,4.70
2023-11-17T14:36:52.764Z,4.30
2023-11-17T14:39:27.092Z,4.30
2023-11-17T14:41:54.879Z,4.20
2023-11-17T14:44:22.297Z,4.10
2023-11-17T14:46:49.221Z,4.40
2023-11-17T14:49:19.468Z,4.28
2023-11-17T14:51:46.379Z,4.53
2023-11-17T14:54:14.319Z,5.00
2023-11-17T14:56:43.707Z,4.22
2023-11-17T14:59:10.825Z,4.32
2023-11-17T15:01:40.883Z,4.78
2023-11-17T15:04:07.440Z,4.88
2023-11-17T15:06:34.092Z,5.55
2023-11-17T15:09:00.623Z,5.30
2023-11-17T15:11:27.788Z,5.32
2023-11-17T15:14:05.500Z,5.55
2023-11-17T15:16:34.980Z,5.20
2023-11-17T15:19:01.722Z,5.55
2023-11-17T15:21:39.040Z,5.57
2023-11-17T15:24:10.353Z,4.88
2023-11-17T15:26:37.192Z,5.97
2023-11-17T15:29:06.020Z,5.53
2023-11-17T15:31:33.485Z,6.03
2023-11-17T15:34:12.058Z,5.70
2023-11-17T15:36:38.479Z,6.00
2023-11-17T15:39:13.130Z,5.50
2023-11-17T15:41:39.679Z,6.20
2023-11-17T15:44:08.290Z,5.70
2023-11-17T15:46:37.208Z,6.65
2023-11-17T15:49:10.933Z,7.03
2023-11-17T15:51:41.872Z,6.38
2023-11-17T15:54:11.537Z,6.28
2023-11-17T15:56:41.394Z,7.07
2023-11-17T15:59:09.921Z,5.95
2023-11-17T16:01:39.777Z,6.50
2023-11-17T16:04:08.315Z,7.07
2023-11-17T16:06:35.349Z,7.07
2023-11-17T16:09:02.191Z,6.68
2023-11-17T16:11:32.164Z,7.60
2023-11-17T16:13:58.544Z,7.07
2023-11-17T16:16:25.042Z,7.25
2023-11-17T16:18:53.742Z,7.55
2023-11-17T16:21:20.155Z,7.78
2023-11-17T16:23:48.064Z,7.65
2023-11-17T16:26:15.546Z,7.20
2023-11-17T16:31:14.098Z,6.57
2023-11-17T16:33:43.394Z,6.90
2023-11-17T16:36:13.081Z,6.53
2023-11-17T16:38:41.889Z,7.30
2023-11-17T16:41:08.606Z,6.93
2023-11-17T16:43:35.142Z,7.13
2023-11-17T16:46:04.269Z,7.22
2023-11-17T16:48:30.912Z,6.57
2023-11-17T16:50:58.590Z,6.78
2023-11-17T16:53:25.642Z,6.90
2023-11-17T16:55:52.281Z,7.20
2023-11-17T16:58:21.880Z,7.07
2023-11-17T17:00:51.434Z,8.90
2023-11-17T17:03:22.348Z,8.65
2023-11-17T17:05:50.149Z,8.60
2023-11-17T17:08:17.073Z,7.85
2023-11-17T17:10:45.271Z,8.13
2023-11-17T17:13:13.604Z,7.70
2023-11-17T17:15:41.744Z,7.60
2023-11-17T17:18:11.071Z,8.60
2023-11-17T17:20:39.345Z,9.00
2023-11-17T17:23:08.279Z,8.85
2023-11-17T17:25:40.459Z,9.07
2023-11-17T17:28:11.721Z,9.05
2023-11-17T17:30:38.628Z,9.00
2023-11-17T17:33:05.242Z,9.23
2023-11-17T17:35:35.714Z,10.50
2023-11-17T17:38:02.813Z,12.70
2023-11-17T17:40:29.477Z,13.48
2023-11-17T17:42:56.175Z,14.45
2023-11-17T17:45:25.993Z,18.05
2023-11-17T17:47:55.588Z,23.50
2023-11-17T17:50:24.200Z,20.75
2023-11-17T17:52:52.176Z,19.30
2023-11-17T17:55:21.092Z,19.17
2023-11-17T17:57:48.632Z,17.75
2023-11-17T18:02:49.492Z,15.68
2023-11-17T18:05:16.396Z,15.52
2023-11-17T18:07:43.722Z,17.48
2023-11-17T18:10:12.672Z,15.98
2023-11-17T18:12:42.549Z,14.80
2023-11-17T18:15:12.821Z,15.98
2023-11-17T18:17:40.113Z,20.17
2023-11-17T18:20:14.050Z,20.52
2023-11-17T18:22:42.249Z,15.13
2023-11-17T18:25:17.049Z,15.82
2023-11-17T18:27:45.921Z,15.95
2023-11-17T18:30:13.246Z,14.23
2023-11-17T18:32:42.721Z,14.60
2023-11-17T18:35:13.202Z,16.52
2023-11-17T18:37:43.108Z,15.45
2023-11-17T18:40:16.756Z,14.80
2023-11-17T18:45:11.128Z,13.68
2023-11-17T18:47:38.058Z,14.15
2023-11-17T18:50:11.501Z,15.98
2023-11-17T18:52:41.080Z,14.73
2023-11-17T18:55:09.938Z,13.13
2023-11-17T18:57:37.010Z,13.70
2023-11-17T19:00:09.622Z,14.50
2023-11-17T19:02:38.868Z,15.45
2023-11-17T19:05:06.261Z,15.35
2023-11-17T19:07:33.103Z,21.02
2023-11-17T19:09:59.679Z,17.58
2023-11-17T19:12:26.720Z,17.80
2023-11-17T19:14:53.290Z,17.75
2023-11-17T19:17:19.930Z,17.25
2023-11-17T19:19:46.969Z,19.48
2023-11-17T19:22:14.613Z,18.85
2023-11-17T19:27:10.993Z,18.90
2023-11-17T19:29:38.638Z,19.30
2023-11-17T19:34:32.599Z,16.80
2023-11-17T19:36:59.047Z,16.08
2023-11-17T19:39:27.497Z,13.52
2023-11-17T19:41:54.212Z,12.38
2023-11-17T19:44:22.194Z,13.95
2023-11-17T19:46:50.266Z,21.92
2023-11-17T19:49:16.776Z,24.85
2023-11-17T19:51:47.532Z,21.20
2023-11-17T19:54:14.651Z,19.00
2023-11-17T19:56:45.064Z,19.80
2023-11-17T19:59:12.161Z,18.70
2023-11-17T20:01:38.898Z,17.15
2023-11-17T20:06:37.061Z,18.98
2023-11-17T20:09:11.576Z,16.35
2023-11-17T20:11:38.093Z,16.65
2023-11-17T20:14:04.553Z,16.92
2023-11-17T20:16:34.729Z,15.15
2023-11-17T20:19:01.386Z,14.80
2023-11-17T20:21:27.760Z,16.25
2023-11-17T20:23:56.779Z,16.25
2023-11-17T20:26:23.202Z,19.95
2023-11-17T20:28:49.722Z,17.42
2023-11-17T20:31:16.980Z,17.83
2023-11-17T20:33:44.205Z,16.67
2023-11-17T20:36:21.297Z,16.08
2023-11-17T20:38:47.707Z,17.33
2023-11-17T20:41:16.233Z,21.52
2023-11-17T20:43:43.511Z,21.60
2023-11-17T20:46:13.319Z,18.08
2023-11-17T20:48:40.017Z,18.38
2023-11-17T20:51:06.583Z,17.08
2023-11-17T20:53:34.592Z,17.27
2023-11-17T20:56:02.855Z,16.15
2023-11-17T20:58:29.978Z,16.40
2023-11-17T21:00:58.650Z,18.17
2023-11-17T21:03:25.253Z,16.10
2023-11-17T21:05:51.756Z,14.70
2023-11-17T21:08:18.200Z,13.73
2023-11-17T21:10:46.015Z,14.32
2023-11-17T21:13:13.173Z,13.77
2023-11-17T21:15:39.645Z,13.05
2023-11-17T21:18:09.027Z,12.90
2023-11-17T21:20:37.183Z,12.73
2023-11-17T21:23:03.799Z,13.52
2023-11-17T21:25:31.253Z,13.20
2023-11-17T21:27:57.743Z,12.35
2023-11-17T21:30:25.054Z,13.13
2023-11-17T21:32:55.356Z,12.32
2023-11-17T21:35:22.842Z,13.23
2023-11-17T21:37:53.948Z,12.07
2023-11-17T21:40:21.746Z,11.45
2023-11-17T21:42:49.781Z,12.68
2023-11-17T21:45:21.496Z,11.77
2023-11-17T21:47:51.728Z,11.63
2023-11-17T21:50:18.549Z,11.60
2023-11-17T21:52:45.703Z,12.50
2023-11-17T21:55:15.361Z,11.15
2023-11-17T21:57:46.545Z,13.55
2023-11-17T22:00:17.601Z,12.52
2023-11-17T22:02:46.206Z,11.75
2023-11-17T22:05:17.418Z,11.18
2023-11-17T22:07:45.227Z,11.25
2023-11-17T22:10:15.098Z,12.30
2023-11-17T22:12:42.866Z,11.65
2023-11-17T22:15:10.538Z,12.52
2023-11-17T22:17:38.106Z,12.27
2023-11-17T22:20:06.738Z,11.70
2023-11-17T22:22:34.395Z,14.02
2023-11-17T22:25:01.702Z,12.32
2023-11-17T22:27:31.113Z,12.55
2023-11-17T22:29:57.731Z,12.75
2023-11-17T22:32:26.975Z,11.60
2023-11-17T22:34:53.487Z,11.48
2023-11-17T22:37:19.899Z,12.25
2023-11-17T22:39:46.455Z,11.65
2023-11-17T22:42:12.972Z,11.30
2023-11-17T22:44:39.461Z,11.60
2023-11-17T22:47:06.059Z,10.98
2023-11-17T22:52:00.914Z,11.85
2023-11-17T22:54:27.346Z,11.75
2023-11-17T22:56:53.820Z,11.98
2023-11-17T22:59:20.326Z,13.18
2023-11-17T23:01:46.802Z,11.93
2023-11-17T23:04:13.392Z,10.90
2023-11-17T23:06:39.969Z,12.35
2023-11-17T23:09:10.559Z,11.63
2023-11-17T23:11:39.470Z,12.00
2023-11-17T23:14:06.442Z,11.48
2023-11-17T23:16:33.630Z,12.07
2023-11-17T23:19:08.008Z,13.02
2023-11-17T23:21:40.927Z,13.10
2023-11-17T23:24:07.588Z,12.63
2023-11-17T23:26:34.235Z,12.63
2023-11-17T23:29:00.657Z,12.98
2023-11-17T23:31:27.177Z,12.63
2023-11-17T23:33:53.727Z,11.70
2023-11-17T23:36:21.006Z,12.20
2023-11-17T23:38:48.199Z,11.23
2023-11-17T23:41:18.396Z,11.95
2023-11-17T23:43:47.656Z,11.68
2023-11-17T23:46:14.988Z,12.63
2023-11-17T23:48:42.076Z,11.77
2023-11-17T23:51:08.520Z,11.35
2023-11-17T23:53:35.724Z,13.85
2023-11-17T23:56:02.252Z,11.60
2023-11-17T23:58:28.910Z,13.15
